Wheeling Ohio County Airport
KHLG : now visible

Airfield :











YOU CAN JOIN US ON...

 
LOGIN :

Register | Disclaimer

   EN    FR    IT 

 









Legend :    VFR   Marginal VFR   IFR   Intensive IFR   Very Intensive IFR
Visi :
Ceiling :
>= 8 km
>= 3000ft
5 to 8 km
1000 to 3000 ft
1500m to 5 km
500 to 1000 ft
800 to 1500m
200 to 500 ft
< 800m
< 200 ft
Symbols :   Thunderstorms  Fog  Heavy snow  Heavy precipitations  Wind > 20 kt






- Airport Elevation : 1195 ft


KHLG - Wheeling Ohio County

CURRENT METAR :
  • 181053Z AUTO 11008KT 10SM FEW008 BKN100 M03/M04 A3021 RMK AO2 SLP248 T10281044

EXPIRED METARs :
  • 181024Z AUTO 11008KT 10SM SCT009 SCT090 BKN110 M03/M04 A3024 RMK AO2 T10281044
  • 180953Z AUTO 16005KT 10SM BKN008 M03/M04 A3029 RMK AO2 SLP274 T10281044
  • 180933Z AUTO 14008KT 10SM BKN008 OVC100 M03/M04 A3028 RMK AO2 T10281044
  • 180924Z AUTO 11011KT 10SM SCT008 OVC100 M03/M04 A3027 RMK AO2 T10281044
  • 180853Z AUTO 09015KT 10SM OVC100 M03/M06 A3028 RMK AO2 FZRAB28E43SNE15 SLP272 P0001 60004 I1001 I3001 T10331056 56045
  • 180834Z AUTO 08016KT 9SM -FZRA BKN048 OVC100 M03/M06 A3029 RMK AO2 FZRAB28SNE15 P0001 I1001 T10331056

TAF KHLG
Valid from the 18 at 10:00 until the 19 at 06:00 UTC


180958Z 1810/1906 10010KT P6SM SCT008 OVC035
TEMPO 1810/1811 BKN008
FM181400 16010KT 2SM -FZRASN OVC015
FM181600 17012G22KT 3SM -RA OVC008 WS020/21045KT
FM181900 21015G25KT 5SM -RA OVC015
FM182200 24015G25KT P6SM OVC015



MET'MAP, your aeronautical weather chart ! - Copyright ORBIFLY December 2007 - Disclaimer

ORBIFLY MET'MAP TEAM :

Programming & Development : Alexandra Zaïnal
Concept & original design : Baudouin d'Aumeries
Assistance for programming : Marc-Olivier Méhu
Technical & hardware support : Manuel Goepfert

Contact : metmap@orbifly.com




SOURCES & CREDITS :

   NOAA       Earth
Advisory